sensor_id;sensor_type;location;lat;lon;timestamp;P1;durP1;ratioP1;P2;durP2;ratioP2
74541;SDS011;63015;45.378;20.360;2022-12-16T00:00:22;32.67;;;14.02;;
74541;SDS011;63015;45.378;20.360;2022-12-16T00:02:23;41.38;;;13.57;;
74541;SDS011;63015;45.378;20.360;2022-12-16T00:04:24;17.15;;;7.70;;
74541;SDS011;63015;45.378;20.360;2022-12-16T00:06:26;16.92;;;7.60;;
74541;SDS011;63015;45.378;20.360;2022-12-16T00:08:30;11.52;;;6.07;;
74541;SDS011;63015;45.378;20.360;2022-12-16T00:10:32;11.90;;;5.45;;
74541;SDS011;63015;45.378;20.360;2022-12-16T00:12:52;12.10;;;7.32;;
74541;SDS011;63015;45.378;20.360;2022-12-16T00:14:52;13.57;;;6.75;;
74541;SDS011;63015;45.378;20.360;2022-12-16T00:16:53;16.63;;;7.35;;
74541;SDS011;63015;45.378;20.360;2022-12-16T00:18:53;13.65;;;6.75;;
74541;SDS011;63015;45.378;20.360;2022-12-16T00:20:54;11.63;;;5.72;;
74541;SDS011;63015;45.378;20.360;2022-12-16T00:22:54;8.80;;;4.70;;
74541;SDS011;63015;45.378;20.360;2022-12-16T00:24:55;9.63;;;4.50;;
74541;SDS011;63015;45.378;20.360;2022-12-16T00:26:56;10.35;;;5.20;;
74541;SDS011;63015;45.378;20.360;2022-12-16T00:28:56;10.90;;;5.70;;
74541;SDS011;63015;45.378;20.360;2022-12-16T00:30:57;11.90;;;5.45;;
74541;SDS011;63015;45.378;20.360;2022-12-16T00:32:58;14.45;;;6.38;;
74541;SDS011;63015;45.378;20.360;2022-12-16T00:34:58;7.55;;;4.10;;
74541;SDS011;63015;45.378;20.360;2022-12-16T00:36:59;8.68;;;4.30;;
74541;SDS011;63015;45.378;20.360;2022-12-16T00:38:59;20.08;;;7.00;;
74541;SDS011;63015;45.378;20.360;2022-12-16T00:41:00;10.05;;;4.78;;
74541;SDS011;63015;45.378;20.360;2022-12-16T00:43:00;10.82;;;5.82;;
74541;SDS011;63015;45.378;20.360;2022-12-16T00:45:01;16.90;;;8.07;;
74541;SDS011;63015;45.378;20.360;2022-12-16T00:47:01;10.45;;;4.82;;
74541;SDS011;63015;45.378;20.360;2022-12-16T00:49:02;11.38;;;5.20;;
74541;SDS011;63015;45.378;20.360;2022-12-16T00:51:02;17.90;;;7.50;;
74541;SDS011;63015;45.378;20.360;2022-12-16T00:53:03;15.98;;;7.30;;
74541;SDS011;63015;45.378;20.360;2022-12-16T00:55:04;12.23;;;5.57;;
74541;SDS011;63015;45.378;20.360;2022-12-16T00:57:05;15.35;;;7.75;;
74541;SDS011;63015;45.378;20.360;2022-12-16T00:59:05;12.13;;;5.55;;
74541;SDS011;63015;45.378;20.360;2022-12-16T01:01:06;11.63;;;5.38;;
74541;SDS011;63015;45.378;20.360;2022-12-16T01:03:07;10.75;;;6.40;;
74541;SDS011;63015;45.378;20.360;2022-12-16T01:05:08;13.05;;;5.60;;
74541;SDS011;63015;45.378;20.360;2022-12-16T01:07:10;11.00;;;5.63;;
74541;SDS011;63015;45.378;20.360;2022-12-16T01:09:11;12.88;;;6.53;;
74541;SDS011;63015;45.378;20.360;2022-12-16T01:11:11;9.52;;;4.65;;
74541;SDS011;63015;45.378;20.360;2022-12-16T01:13:11;11.10;;;5.40;;
74541;SDS011;63015;45.378;20.360;2022-12-16T01:15:12;9.65;;;4.10;;
74541;SDS011;63015;45.378;20.360;2022-12-16T01:17:14;11.98;;;4.88;;
74541;SDS011;63015;45.378;20.360;2022-12-16T01:19:14;9.80;;;4.70;;
74541;SDS011;63015;45.378;20.360;2022-12-16T01:21:15;9.82;;;4.65;;
74541;SDS011;63015;45.378;20.360;2022-12-16T01:23:15;8.13;;;3.22;;
74541;SDS011;63015;45.378;20.360;2022-12-16T01:25:16;10.73;;;5.50;;
74541;SDS011;63015;45.378;20.360;2022-12-16T01:27:16;10.45;;;5.75;;
74541;SDS011;63015;45.378;20.360;2022-12-16T01:29:17;12.70;;;6.25;;
74541;SDS011;63015;45.378;20.360;2022-12-16T01:31:18;9.50;;;4.78;;
74541;SDS011;63015;45.378;20.360;2022-12-16T01:33:20;7.68;;;3.75;;
74541;SDS011;63015;45.378;20.360;2022-12-16T01:35:20;9.77;;;5.70;;
74541;SDS011;63015;45.378;20.360;2022-12-16T01:37:21;8.80;;;4.15;;
74541;SDS011;63015;45.378;20.360;2022-12-16T01:39:22;7.78;;;3.92;;
74541;SDS011;63015;45.378;20.360;2022-12-16T01:41:24;10.52;;;4.43;;
74541;SDS011;63015;45.378;20.360;2022-12-16T01:43:26;9.68;;;4.28;;
74541;SDS011;63015;45.378;20.360;2022-12-16T01:47:29;8.25;;;3.78;;
74541;SDS011;63015;45.378;20.360;2022-12-16T01:51:50;5.80;;;3.00;;
74541;SDS011;63015;45.378;20.360;2022-12-16T01:54:05;16.38;;;4.35;;
74541;SDS011;63015;45.378;20.360;2022-12-16T01:56:09;8.82;;;3.83;;
74541;SDS011;63015;45.378;20.360;2022-12-16T01:58:18;7.40;;;3.58;;
74541;SDS011;63015;45.378;20.360;2022-12-16T02:00:21;9.68;;;4.80;;
74541;SDS011;63015;45.378;20.360;2022-12-16T02:02:22;8.48;;;4.13;;
74541;SDS011;63015;45.378;20.360;2022-12-16T02:04:23;8.10;;;4.70;;
74541;SDS011;63015;45.378;20.360;2022-12-16T02:06:23;7.95;;;3.72;;
74541;SDS011;63015;45.378;20.360;2022-12-16T02:08:24;8.43;;;4.22;;
74541;SDS011;63015;45.378;20.360;2022-12-16T02:10:27;7.68;;;3.85;;
74541;SDS011;63015;45.378;20.360;2022-12-16T02:12:52;9.30;;;4.40;;
74541;SDS011;63015;45.378;20.360;2022-12-16T02:15:07;6.15;;;3.35;;
74541;SDS011;63015;45.378;20.360;2022-12-16T02:29:12;6.95;;;3.42;;
74541;SDS011;63015;45.378;20.360;2022-12-16T02:38:48;8.13;;;3.50;;
74541;SDS011;63015;45.378;20.360;2022-12-16T02:41:01;7.68;;;2.97;;
74541;SDS011;63015;45.378;20.360;2022-12-16T02:43:16;4.95;;;2.38;;
74541;SDS011;63015;45.378;20.360;2022-12-16T02:45:26;6.68;;;2.60;;
74541;SDS011;63015;45.378;20.360;2022-12-16T02:47:30;8.52;;;2.63;;
74541;SDS011;63015;45.378;20.360;2022-12-16T02:51:31;6.35;;;3.08;;
74541;SDS011;63015;45.378;20.360;2022-12-16T02:53:35;7.68;;;3.67;;
74541;SDS011;63015;45.378;20.360;2022-12-16T03:00:16;9.25;;;3.92;;
74541;SDS011;63015;45.378;20.360;2022-12-16T03:04:52;7.55;;;2.72;;
74541;SDS011;63015;45.378;20.360;2022-12-16T03:06:57;8.68;;;3.05;;
74541;SDS011;63015;45.378;20.360;2022-12-16T03:09:00;7.60;;;3.50;;
74541;SDS011;63015;45.378;20.360;2022-12-16T03:11:05;7.50;;;3.65;;
74541;SDS011;63015;45.378;20.360;2022-12-16T03:13:09;7.13;;;3.33;;
74541;SDS011;63015;45.378;20.360;2022-12-16T03:15:12;7.85;;;3.08;;
74541;SDS011;63015;45.378;20.360;2022-12-16T03:17:18;8.02;;;3.67;;
74541;SDS011;63015;45.378;20.360;2022-12-16T03:19:22;5.95;;;2.63;;
74541;SDS011;63015;45.378;20.360;2022-12-16T03:21:26;6.32;;;3.10;;
74541;SDS011;63015;45.378;20.360;2022-12-16T03:23:52;7.70;;;3.85;;
74541;SDS011;63015;45.378;20.360;2022-12-16T03:25:55;6.40;;;2.75;;
74541;SDS011;63015;45.378;20.360;2022-12-16T03:30:22;4.88;;;1.98;;
74541;SDS011;63015;45.378;20.360;2022-12-16T03:36:48;8.50;;;4.53;;
74541;SDS011;63015;45.378;20.360;2022-12-16T03:38:50;7.38;;;3.40;;
74541;SDS011;63015;45.378;20.360;2022-12-16T03:40:52;7.50;;;2.92;;
74541;SDS011;63015;45.378;20.360;2022-12-16T03:44:56;9.52;;;4.43;;
74541;SDS011;63015;45.378;20.360;2022-12-16T03:46:57;7.50;;;2.28;;
74541;SDS011;63015;45.378;20.360;2022-12-16T03:48:57;7.85;;;3.60;;
74541;SDS011;63015;45.378;20.360;2022-12-16T03:50:58;7.03;;;2.70;;
74541;SDS011;63015;45.378;20.360;2022-12-16T03:53:00;9.52;;;3.75;;
74541;SDS011;63015;45.378;20.360;2022-12-16T03:55:01;8.93;;;2.88;;
74541;SDS011;63015;45.378;20.360;2022-12-16T03:57:02;6.47;;;3.25;;
74541;SDS011;63015;45.378;20.360;2022-12-16T03:59:02;6.97;;;3.15;;
74541;SDS011;63015;45.378;20.360;2022-12-16T04:01:03;7.22;;;3.33;;
74541;SDS011;63015;45.378;20.360;2022-12-16T04:03:03;7.20;;;3.45;;
74541;SDS011;63015;45.378;20.360;2022-12-16T04:05:04;7.40;;;3.45;;
74541;SDS011;63015;45.378;20.360;2022-12-16T04:07:05;6.20;;;2.67;;
74541;SDS011;63015;45.378;20.360;2022-12-16T04:09:20;6.18;;;2.40;;
74541;SDS011;63015;45.378;20.360;2022-12-16T04:11:21;5.20;;;2.20;;
74541;SDS011;63015;45.378;20.360;2022-12-16T04:13:40;7.85;;;3.42;;
74541;SDS011;63015;45.378;20.360;2022-12-16T04:15:59;8.40;;;4.47;;
74541;SDS011;63015;45.378;20.360;2022-12-16T04:18:19;7.30;;;3.60;;
74541;SDS011;63015;45.378;20.360;2022-12-16T04:20:39;9.10;;;3.40;;
74541;SDS011;63015;45.378;20.360;2022-12-16T04:23:07;8.10;;;3.65;;
74541;SDS011;63015;45.378;20.360;2022-12-16T04:25:31;10.63;;;4.63;;
74541;SDS011;63015;45.378;20.360;2022-12-16T04:27:34;6.65;;;3.17;;
74541;SDS011;63015;45.378;20.360;2022-12-16T04:29:35;10.05;;;3.83;;
74541;SDS011;63015;45.378;20.360;2022-12-16T04:31:55;11.40;;;4.30;;
74541;SDS011;63015;45.378;20.360;2022-12-16T04:33:57;9.18;;;4.25;;
74541;SDS011;63015;45.378;20.360;2022-12-16T04:36:16;6.40;;;2.92;;
74541;SDS011;63015;45.378;20.360;2022-12-16T04:38:35;9.02;;;3.42;;
74541;SDS011;63015;45.378;20.360;2022-12-16T04:40:54;6.70;;;2.72;;
74541;SDS011;63015;45.378;20.360;2022-12-16T04:43:14;6.85;;;3.45;;
74541;SDS011;63015;45.378;20.360;2022-12-16T04:45:33;6.57;;;3.08;;
74541;SDS011;63015;45.378;20.360;2022-12-16T04:47:52;7.60;;;3.08;;
74541;SDS011;63015;45.378;20.360;2022-12-16T04:50:12;8.75;;;3.00;;
74541;SDS011;63015;45.378;20.360;2022-12-16T04:52:31;7.97;;;2.95;;
74541;SDS011;63015;45.378;20.360;2022-12-16T04:54:50;7.22;;;3.65;;
74541;SDS011;63015;45.378;20.360;2022-12-16T04:57:09;8.00;;;4.03;;
74541;SDS011;63015;45.378;20.360;2022-12-16T04:59:28;5.65;;;2.83;;
74541;SDS011;63015;45.378;20.360;2022-12-16T05:01:48;7.00;;;3.03;;
74541;SDS011;63015;45.378;20.360;2022-12-16T05:04:06;7.20;;;2.88;;
74541;SDS011;63015;45.378;20.360;2022-12-16T05:06:25;7.13;;;3.55;;
74541;SDS011;63015;45.378;20.360;2022-12-16T05:08:45;7.85;;;3.30;;
74541;SDS011;63015;45.378;20.360;2022-12-16T05:11:03;6.25;;;2.50;;
74541;SDS011;63015;45.378;20.360;2022-12-16T05:13:23;5.97;;;2.45;;
74541;SDS011;63015;45.378;20.360;2022-12-16T05:15:42;7.13;;;3.38;;
74541;SDS011;63015;45.378;20.360;2022-12-16T05:18:10;6.22;;;3.15;;
74541;SDS011;63015;45.378;20.360;2022-12-16T05:20:31;5.03;;;2.70;;
74541;SDS011;63015;45.378;20.360;2022-12-16T05:22:50;8.20;;;3.63;;
74541;SDS011;63015;45.378;20.360;2022-12-16T05:25:12;8.80;;;3.03;;
74541;SDS011;63015;45.378;20.360;2022-12-16T05:27:32;6.20;;;3.20;;
74541;SDS011;63015;45.378;20.360;2022-12-16T05:29:51;7.05;;;2.33;;
74541;SDS011;63015;45.378;20.360;2022-12-16T05:32:10;6.78;;;3.28;;
74541;SDS011;63015;45.378;20.360;2022-12-16T05:34:28;12.35;;;5.43;;
74541;SDS011;63015;45.378;20.360;2022-12-16T05:36:48;7.50;;;3.13;;
74541;SDS011;63015;45.378;20.360;2022-12-16T05:39:07;12.90;;;6.00;;
74541;SDS011;63015;45.378;20.360;2022-12-16T05:41:26;13.02;;;4.55;;
74541;SDS011;63015;45.378;20.360;2022-12-16T05:43:45;8.68;;;4.07;;
74541;SDS011;63015;45.378;20.360;2022-12-16T05:46:04;9.55;;;4.50;;
74541;SDS011;63015;45.378;20.360;2022-12-16T05:48:24;8.20;;;3.42;;
74541;SDS011;63015;45.378;20.360;2022-12-16T05:50:43;10.55;;;3.20;;
74541;SDS011;63015;45.378;20.360;2022-12-16T05:53:02;8.85;;;3.80;;
74541;SDS011;63015;45.378;20.360;2022-12-16T05:55:22;10.88;;;4.35;;
74541;SDS011;63015;45.378;20.360;2022-12-16T05:57:41;10.40;;;4.13;;
74541;SDS011;63015;45.378;20.360;2022-12-16T06:00:00;7.03;;;3.08;;
74541;SDS011;63015;45.378;20.360;2022-12-16T06:02:20;9.52;;;4.45;;
74541;SDS011;63015;45.378;20.360;2022-12-16T06:04:38;12.63;;;5.38;;
74541;SDS011;63015;45.378;20.360;2022-12-16T06:06:58;7.65;;;3.30;;
74541;SDS011;63015;45.378;20.360;2022-12-16T06:09:17;10.82;;;5.10;;
74541;SDS011;63015;45.378;20.360;2022-12-16T06:11:36;6.13;;;3.45;;
74541;SDS011;63015;45.378;20.360;2022-12-16T06:13:55;9.85;;;4.60;;
74541;SDS011;63015;45.378;20.360;2022-12-16T06:16:14;9.13;;;4.28;;
74541;SDS011;63015;45.378;20.360;2022-12-16T06:18:33;8.30;;;3.60;;
74541;SDS011;63015;45.378;20.360;2022-12-16T06:20:52;8.30;;;3.97;;
74541;SDS011;63015;45.378;20.360;2022-12-16T06:23:11;12.65;;;4.75;;
74541;SDS011;63015;45.378;20.360;2022-12-16T06:25:30;10.95;;;4.47;;
74541;SDS011;63015;45.378;20.360;2022-12-16T06:27:51;7.35;;;3.13;;
74541;SDS011;63015;45.378;20.360;2022-12-16T06:30:11;9.55;;;3.72;;
74541;SDS011;63015;45.378;20.360;2022-12-16T06:32:30;9.23;;;3.85;;
74541;SDS011;63015;45.378;20.360;2022-12-16T06:34:49;8.77;;;4.18;;
74541;SDS011;63015;45.378;20.360;2022-12-16T06:37:08;8.65;;;3.58;;
74541;SDS011;63015;45.378;20.360;2022-12-16T06:39:28;5.85;;;2.63;;
74541;SDS011;63015;45.378;20.360;2022-12-16T06:41:47;9.20;;;3.60;;
74541;SDS011;63015;45.378;20.360;2022-12-16T06:44:06;8.43;;;3.90;;
74541;SDS011;63015;45.378;20.360;2022-12-16T06:46:25;7.03;;;3.58;;
74541;SDS011;63015;45.378;20.360;2022-12-16T06:48:44;9.63;;;4.80;;
74541;SDS011;63015;45.378;20.360;2022-12-16T06:51:03;8.68;;;4.15;;
74541;SDS011;63015;45.378;20.360;2022-12-16T06:53:23;10.88;;;4.40;;
74541;SDS011;63015;45.378;20.360;2022-12-16T06:55:41;10.07;;;4.63;;
74541;SDS011;63015;45.378;20.360;2022-12-16T06:58:01;7.47;;;3.97;;
74541;SDS011;63015;45.378;20.360;2022-12-16T07:00:20;5.82;;;3.25;;
74541;SDS011;63015;45.378;20.360;2022-12-16T07:02:39;8.63;;;4.55;;
74541;SDS011;63015;45.378;20.360;2022-12-16T07:04:58;8.60;;;4.22;;
74541;SDS011;63015;45.378;20.360;2022-12-16T07:07:17;7.10;;;3.17;;
74541;SDS011;63015;45.378;20.360;2022-12-16T07:09:35;8.70;;;3.45;;
74541;SDS011;63015;45.378;20.360;2022-12-16T07:11:54;6.90;;;3.40;;
74541;SDS011;63015;45.378;20.360;2022-12-16T07:14:13;7.97;;;3.97;;
74541;SDS011;63015;45.378;20.360;2022-12-16T07:16:32;9.20;;;3.97;;
74541;SDS011;63015;45.378;20.360;2022-12-16T07:18:51;8.25;;;3.35;;
74541;SDS011;63015;45.378;20.360;2022-12-16T07:21:10;7.20;;;4.07;;
74541;SDS011;63015;45.378;20.360;2022-12-16T07:23:29;10.27;;;4.55;;
74541;SDS011;63015;45.378;20.360;2022-12-16T07:25:49;7.82;;;3.78;;
74541;SDS011;63015;45.378;20.360;2022-12-16T07:28:08;9.65;;;4.13;;
74541;SDS011;63015;45.378;20.360;2022-12-16T07:30:27;8.30;;;3.50;;
74541;SDS011;63015;45.378;20.360;2022-12-16T07:32:48;9.05;;;4.60;;
74541;SDS011;63015;45.378;20.360;2022-12-16T07:35:07;8.10;;;4.00;;
74541;SDS011;63015;45.378;20.360;2022-12-16T07:37:27;10.95;;;4.82;;
74541;SDS011;63015;45.378;20.360;2022-12-16T07:39:46;11.32;;;5.22;;
74541;SDS011;63015;45.378;20.360;2022-12-16T07:42:05;14.48;;;5.15;;
74541;SDS011;63015;45.378;20.360;2022-12-16T07:44:24;22.92;;;9.02;;
74541;SDS011;63015;45.378;20.360;2022-12-16T07:46:43;16.33;;;6.57;;
74541;SDS011;63015;45.378;20.360;2022-12-16T07:49:02;23.42;;;10.35;;
74541;SDS011;63015;45.378;20.360;2022-12-16T07:51:25;16.27;;;8.13;;
74541;SDS011;63015;45.378;20.360;2022-12-16T07:53:44;13.95;;;6.35;;
74541;SDS011;63015;45.378;20.360;2022-12-16T07:56:03;16.38;;;7.45;;
74541;SDS011;63015;45.378;20.360;2022-12-16T07:58:23;17.05;;;7.57;;
74541;SDS011;63015;45.378;20.360;2022-12-16T08:00:42;10.43;;;4.97;;
74541;SDS011;63015;45.378;20.360;2022-12-16T08:03:02;12.43;;;5.65;;
74541;SDS011;63015;45.378;20.360;2022-12-16T08:05:21;13.18;;;6.13;;
74541;SDS011;63015;45.378;20.360;2022-12-16T08:07:40;13.10;;;5.68;;
74541;SDS011;63015;45.378;20.360;2022-12-16T08:10:00;11.38;;;5.40;;
74541;SDS011;63015;45.378;20.360;2022-12-16T08:12:19;8.95;;;4.30;;
74541;SDS011;63015;45.378;20.360;2022-12-16T08:14:38;7.25;;;3.80;;
74541;SDS011;63015;45.378;20.360;2022-12-16T08:16:58;6.78;;;3.58;;
74541;SDS011;63015;45.378;20.360;2022-12-16T08:19:17;9.82;;;4.82;;
74541;SDS011;63015;45.378;20.360;2022-12-16T08:21:36;10.00;;;5.00;;
74541;SDS011;63015;45.378;20.360;2022-12-16T08:23:55;7.28;;;3.72;;
74541;SDS011;63015;45.378;20.360;2022-12-16T08:26:14;7.63;;;3.67;;
74541;SDS011;63015;45.378;20.360;2022-12-16T08:28:34;6.57;;;3.35;;
74541;SDS011;63015;45.378;20.360;2022-12-16T08:30:53;8.32;;;4.18;;
74541;SDS011;63015;45.378;20.360;2022-12-16T08:33:13;7.57;;;3.13;;
74541;SDS011;63015;45.378;20.360;2022-12-16T08:35:32;9.60;;;4.05;;
74541;SDS011;63015;45.378;20.360;2022-12-16T08:37:55;7.70;;;3.58;;
74541;SDS011;63015;45.378;20.360;2022-12-16T08:40:15;11.27;;;5.00;;
74541;SDS011;63015;45.378;20.360;2022-12-16T08:42:34;7.88;;;4.32;;
74541;SDS011;63015;45.378;20.360;2022-12-16T08:44:53;13.00;;;5.97;;
74541;SDS011;63015;45.378;20.360;2022-12-16T08:47:12;19.55;;;8.07;;
74541;SDS011;63015;45.378;20.360;2022-12-16T08:49:31;42.15;;;16.20;;
74541;SDS011;63015;45.378;20.360;2022-12-16T08:51:50;31.65;;;11.57;;
74541;SDS011;63015;45.378;20.360;2022-12-16T08:54:09;20.85;;;9.48;;
74541;SDS011;63015;45.378;20.360;2022-12-16T08:56:28;28.38;;;10.90;;
74541;SDS011;63015;45.378;20.360;2022-12-16T08:58:47;43.17;;;18.15;;
74541;SDS011;63015;45.378;20.360;2022-12-16T09:01:06;24.15;;;10.82;;
74541;SDS011;63015;45.378;20.360;2022-12-16T09:03:26;12.98;;;5.93;;
74541;SDS011;63015;45.378;20.360;2022-12-16T09:05:45;29.90;;;14.27;;
74541;SDS011;63015;45.378;20.360;2022-12-16T09:08:04;8.82;;;4.40;;
74541;SDS011;63015;45.378;20.360;2022-12-16T09:10:23;9.98;;;4.20;;
74541;SDS011;63015;45.378;20.360;2022-12-16T09:12:42;17.40;;;7.20;;
74541;SDS011;63015;45.378;20.360;2022-12-16T09:15:01;14.82;;;7.18;;
74541;SDS011;63015;45.378;20.360;2022-12-16T09:17:21;10.45;;;5.43;;
74541;SDS011;63015;45.378;20.360;2022-12-16T09:19:40;11.15;;;5.55;;
74541;SDS011;63015;45.378;20.360;2022-12-16T09:21:59;11.55;;;6.25;;
74541;SDS011;63015;45.378;20.360;2022-12-16T09:24:18;12.00;;;5.55;;
74541;SDS011;63015;45.378;20.360;2022-12-16T09:26:37;17.77;;;8.70;;
74541;SDS011;63015;45.378;20.360;2022-12-16T09:28:56;18.02;;;9.40;;
74541;SDS011;63015;45.378;20.360;2022-12-16T09:31:15;28.02;;;14.95;;
74541;SDS011;63015;45.378;20.360;2022-12-16T09:33:34;26.55;;;15.00;;
74541;SDS011;63015;45.378;20.360;2022-12-16T09:35:53;14.52;;;8.18;;
74541;SDS011;63015;45.378;20.360;2022-12-16T09:38:13;14.63;;;6.63;;
74541;SDS011;63015;45.378;20.360;2022-12-16T09:40:32;11.65;;;6.22;;
74541;SDS011;63015;45.378;20.360;2022-12-16T09:51:19;10.55;;;5.03;;
74541;SDS011;63015;45.378;20.360;2022-12-16T09:53:38;11.23;;;5.63;;
74541;SDS011;63015;45.378;20.360;2022-12-16T09:56:02;13.00;;;5.90;;
74541;SDS011;63015;45.378;20.360;2022-12-16T09:58:26;11.00;;;6.25;;
74541;SDS011;63015;45.378;20.360;2022-12-16T10:00:51;9.98;;;4.10;;
74541;SDS011;63015;45.378;20.360;2022-12-16T10:03:23;10.48;;;4.88;;
74541;SDS011;63015;45.378;20.360;2022-12-16T10:06:52;13.65;;;5.90;;
74541;SDS011;63015;45.378;20.360;2022-12-16T10:08:51;13.32;;;6.22;;
74541;SDS011;63015;45.378;20.360;2022-12-16T10:11:29;13.60;;;5.05;;
74541;SDS011;63015;45.378;20.360;2022-12-16T10:14:08;19.77;;;8.32;;
74541;SDS011;63015;45.378;20.360;2022-12-16T10:16:41;12.95;;;6.07;;
74541;SDS011;63015;45.378;20.360;2022-12-16T10:21:49;14.70;;;6.18;;
74541;SDS011;63015;45.378;20.360;2022-12-16T10:24:39;24.10;;;9.75;;
74541;SDS011;63015;45.378;20.360;2022-12-16T10:27:15;14.20;;;5.65;;
74541;SDS011;63015;45.378;20.360;2022-12-16T10:29:41;8.55;;;4.47;;
74541;SDS011;63015;45.378;20.360;2022-12-16T10:32:17;17.35;;;6.75;;
74541;SDS011;63015;45.378;20.360;2022-12-16T10:34:45;9.88;;;4.25;;
74541;SDS011;63015;45.378;20.360;2022-12-16T10:37:04;17.42;;;6.05;;
74541;SDS011;63015;45.378;20.360;2022-12-16T10:39:26;20.10;;;7.35;;
74541;SDS011;63015;45.378;20.360;2022-12-16T10:41:49;17.52;;;7.45;;
74541;SDS011;63015;45.378;20.360;2022-12-16T10:44:15;13.95;;;6.10;;
74541;SDS011;63015;45.378;20.360;2022-12-16T10:46:41;15.32;;;6.80;;
74541;SDS011;63015;45.378;20.360;2022-12-16T10:49:00;21.70;;;9.02;;
74541;SDS011;63015;45.378;20.360;2022-12-16T10:51:20;12.77;;;5.60;;
74541;SDS011;63015;45.378;20.360;2022-12-16T10:53:40;17.52;;;7.03;;
74541;SDS011;63015;45.378;20.360;2022-12-16T10:58:43;13.02;;;5.13;;
74541;SDS011;63015;45.378;20.360;2022-12-16T11:01:25;12.40;;;4.72;;
74541;SDS011;63015;45.378;20.360;2022-12-16T11:03:46;18.23;;;7.40;;
74541;SDS011;63015;45.378;20.360;2022-12-16T11:06:05;13.15;;;5.35;;
74541;SDS011;63015;45.378;20.360;2022-12-16T11:10:48;24.00;;;8.90;;
74541;SDS011;63015;45.378;20.360;2022-12-16T11:13:12;35.97;;;11.88;;
74541;SDS011;63015;45.378;20.360;2022-12-16T11:15:56;17.45;;;8.15;;
74541;SDS011;63015;45.378;20.360;2022-12-16T11:18:24;16.88;;;7.65;;
74541;SDS011;63015;45.378;20.360;2022-12-16T11:20:43;19.63;;;6.53;;
74541;SDS011;63015;45.378;20.360;2022-12-16T11:23:06;14.27;;;5.85;;
74541;SDS011;63015;45.378;20.360;2022-12-16T11:25:25;18.65;;;8.38;;
74541;SDS011;63015;45.378;20.360;2022-12-16T11:27:44;25.67;;;8.30;;
74541;SDS011;63015;45.378;20.360;2022-12-16T11:32:35;17.25;;;9.38;;
74541;SDS011;63015;45.378;20.360;2022-12-16T11:34:57;23.40;;;11.13;;
74541;SDS011;63015;45.378;20.360;2022-12-16T11:37:18;20.05;;;7.45;;
74541;SDS011;63015;45.378;20.360;2022-12-16T11:39:38;15.40;;;7.32;;
74541;SDS011;63015;45.378;20.360;2022-12-16T11:41:58;12.70;;;6.60;;
74541;SDS011;63015;45.378;20.360;2022-12-16T11:44:21;25.30;;;10.70;;
74541;SDS011;63015;45.378;20.360;2022-12-16T11:46:46;19.17;;;8.98;;
74541;SDS011;63015;45.378;20.360;2022-12-16T11:49:07;20.00;;;9.85;;
74541;SDS011;63015;45.378;20.360;2022-12-16T11:51:34;12.73;;;6.70;;
74541;SDS011;63015;45.378;20.360;2022-12-16T11:56:26;19.30;;;9.93;;
74541;SDS011;63015;45.378;20.360;2022-12-16T11:58:49;16.42;;;8.27;;
74541;SDS011;63015;45.378;20.360;2022-12-16T12:01:24;21.23;;;11.32;;
74541;SDS011;63015;45.378;20.360;2022-12-16T12:09:12;11.32;;;6.25;;
74541;SDS011;63015;45.378;20.360;2022-12-16T12:11:29;25.10;;;11.48;;
74541;SDS011;63015;45.378;20.360;2022-12-16T12:18:57;16.23;;;8.10;;
74541;SDS011;63015;45.378;20.360;2022-12-16T12:21:25;13.15;;;7.70;;
74541;SDS011;63015;45.378;20.360;2022-12-16T12:26:33;14.07;;;7.40;;
74541;SDS011;63015;45.378;20.360;2022-12-16T12:39:49;14.20;;;7.50;;
74541;SDS011;63015;45.378;20.360;2022-12-16T12:47:58;11.40;;;5.85;;
74541;SDS011;63015;45.378;20.360;2022-12-16T12:50:30;12.98;;;8.23;;
74541;SDS011;63015;45.378;20.360;2022-12-16T12:53:02;14.32;;;8.00;;
74541;SDS011;63015;45.378;20.360;2022-12-16T12:55:25;10.02;;;5.43;;
74541;SDS011;63015;45.378;20.360;2022-12-16T12:57:54;10.25;;;5.50;;
74541;SDS011;63015;45.378;20.360;2022-12-16T13:00:17;9.57;;;5.40;;
74541;SDS011;63015;45.378;20.360;2022-12-16T13:02:43;11.05;;;5.25;;
74541;SDS011;63015;45.378;20.360;2022-12-16T13:05:04;13.25;;;5.25;;
74541;SDS011;63015;45.378;20.360;2022-12-16T13:07:24;11.55;;;5.95;;
74541;SDS011;63015;45.378;20.360;2022-12-16T13:09:43;10.93;;;5.20;;
74541;SDS011;63015;45.378;20.360;2022-12-16T13:16:55;11.25;;;5.45;;
74541;SDS011;63015;45.378;20.360;2022-12-16T13:21:49;18.23;;;9.60;;
74541;SDS011;63015;45.378;20.360;2022-12-16T13:24:28;28.55;;;12.95;;
74541;SDS011;63015;45.378;20.360;2022-12-16T13:27:00;36.45;;;15.43;;
74541;SDS011;63015;45.378;20.360;2022-12-16T13:29:24;34.00;;;14.02;;
74541;SDS011;63015;45.378;20.360;2022-12-16T13:31:58;38.05;;;16.13;;
74541;SDS011;63015;45.378;20.360;2022-12-16T13:34:20;40.78;;;17.02;;
74541;SDS011;63015;45.378;20.360;2022-12-16T13:36:45;40.70;;;18.00;;
74541;SDS011;63015;45.378;20.360;2022-12-16T13:39:19;32.05;;;15.55;;
74541;SDS011;63015;45.378;20.360;2022-12-16T13:43:59;12.85;;;6.32;;
74541;SDS011;63015;45.378;20.360;2022-12-16T13:46:19;11.48;;;6.30;;
74541;SDS011;63015;45.378;20.360;2022-12-16T13:48:39;15.55;;;6.90;;
74541;SDS011;63015;45.378;20.360;2022-12-16T13:50:59;13.00;;;4.75;;
74541;SDS011;63015;45.378;20.360;2022-12-16T13:53:18;11.95;;;6.15;;
74541;SDS011;63015;45.378;20.360;2022-12-16T14:00:54;15.80;;;7.85;;
74541;SDS011;63015;45.378;20.360;2022-12-16T14:03:20;14.93;;;8.38;;
74541;SDS011;63015;45.378;20.360;2022-12-16T14:05:43;13.68;;;7.32;;
74541;SDS011;63015;45.378;20.360;2022-12-16T14:08:03;13.40;;;7.00;;
74541;SDS011;63015;45.378;20.360;2022-12-16T14:13:00;14.55;;;7.65;;
74541;SDS011;63015;45.378;20.360;2022-12-16T14:15:28;14.63;;;7.30;;
74541;SDS011;63015;45.378;20.360;2022-12-16T14:17:59;13.43;;;7.13;;
74541;SDS011;63015;45.378;20.360;2022-12-16T14:20:29;13.43;;;7.07;;
74541;SDS011;63015;45.378;20.360;2022-12-16T14:22:56;13.77;;;7.35;;
74541;SDS011;63015;45.378;20.360;2022-12-16T14:25:27;14.98;;;7.85;;
74541;SDS011;63015;45.378;20.360;2022-12-16T14:27:47;14.75;;;7.80;;
74541;SDS011;63015;45.378;20.360;2022-12-16T14:30:19;13.30;;;6.88;;
74541;SDS011;63015;45.378;20.360;2022-12-16T14:32:40;14.15;;;7.63;;
74541;SDS011;63015;45.378;20.360;2022-12-16T14:35:00;17.88;;;9.02;;
74541;SDS011;63015;45.378;20.360;2022-12-16T14:39:50;14.10;;;7.22;;
74541;SDS011;63015;45.378;20.360;2022-12-16T14:44:46;15.18;;;7.70;;
74541;SDS011;63015;45.378;20.360;2022-12-16T14:47:11;12.45;;;6.40;;
74541;SDS011;63015;45.378;20.360;2022-12-16T14:49:35;21.25;;;10.13;;
74541;SDS011;63015;45.378;20.360;2022-12-16T14:51:54;22.33;;;11.70;;
74541;SDS011;63015;45.378;20.360;2022-12-16T14:56:39;19.60;;;11.13;;
74541;SDS011;63015;45.378;20.360;2022-12-16T14:59:08;18.45;;;9.45;;
74541;SDS011;63015;45.378;20.360;2022-12-16T15:01:31;17.98;;;8.50;;
74541;SDS011;63015;45.378;20.360;2022-12-16T15:03:51;18.80;;;8.85;;
74541;SDS011;63015;45.378;20.360;2022-12-16T15:06:11;14.00;;;6.43;;
74541;SDS011;63015;45.378;20.360;2022-12-16T15:08:38;16.20;;;7.88;;
74541;SDS011;63015;45.378;20.360;2022-12-16T15:11:22;17.13;;;8.10;;
74541;SDS011;63015;45.378;20.360;2022-12-16T15:13:42;17.98;;;8.40;;
74541;SDS011;63015;45.378;20.360;2022-12-16T15:16:02;18.08;;;8.45;;
74541;SDS011;63015;45.378;20.360;2022-12-16T15:18:30;20.55;;;8.60;;